createdAt,value
2023-06-27T00:00:12.794Z,97124.72
2023-06-27T00:03:00.000Z,97122.91
2023-06-27T00:05:47.357Z,97130.94
2023-06-27T00:08:34.545Z,97128.31
2023-06-27T00:11:21.436Z,97135.53
2023-06-27T00:14:10.263Z,97129.03
2023-06-27T00:16:58.490Z,97130.47
2023-06-27T00:19:47.987Z,97128.31
2023-06-27T00:22:34.925Z,97135.31
2023-06-27T00:25:21.800Z,97136.22
2023-06-27T00:28:08.698Z,97145.84
2023-06-27T00:30:55.557Z,97139.03
2023-06-27T00:33:42.472Z,97134.97
2023-06-27T00:36:29.464Z,97143.81
2023-06-27T00:39:16.358Z,97147.16
2023-06-27T00:42:03.430Z,97146.16
2023-06-27T00:44:50.372Z,97147.34
2023-06-27T00:47:37.775Z,97142.28
2023-06-27T00:50:25.540Z,97142.59
2023-06-27T00:53:12.960Z,97158.81
2023-06-27T00:55:59.881Z,97150.38
2023-06-27T00:58:46.765Z,97157.56
2023-06-27T01:01:33.640Z,97156.56
2023-06-27T01:04:20.612Z,97153.06
2023-06-27T01:07:12.240Z,97160.75
2023-06-27T01:10:05.061Z,97161.06
2023-06-27T01:13:07.148Z,97158.09
2023-06-27T01:15:54.252Z,97155.47
2023-06-27T01:18:42.472Z,97158.22
2023-06-27T01:21:29.787Z,97165.88
2023-06-27T01:24:16.708Z,97174.19
2023-06-27T01:27:04.230Z,97174.78
2023-06-27T01:29:51.298Z,97179.50
2023-06-27T01:32:50.927Z,97177.69
2023-06-27T01:35:49.898Z,97181.53
2023-06-27T01:38:39.617Z,97184.53
2023-06-27T01:41:29.059Z,97188.19
2023-06-27T01:44:17.314Z,97180.88
2023-06-27T01:47:04.178Z,97182.88
2023-06-27T01:49:51.485Z,97185.97
2023-06-27T01:52:38.349Z,97188.44
2023-06-27T01:55:25.300Z,97176.22
2023-06-27T01:58:12.458Z,97183.38
2023-06-27T02:00:59.463Z,97185.34
2023-06-27T02:03:46.425Z,97191.72
2023-06-27T02:06:33.252Z,97190.38
2023-06-27T02:09:20.168Z,97197.81
2023-06-27T02:12:07.572Z,97196.28
2023-06-27T02:14:54.487Z,97194.94
2023-06-27T02:17:41.737Z,97194.94
2023-06-27T02:20:29.962Z,97202.31
2023-06-27T02:23:16.843Z,97196.63
2023-06-27T02:26:04.730Z,97206.78
2023-06-27T02:28:51.590Z,97215.88
2023-06-27T02:31:38.505Z,97208.25
2023-06-27T02:34:25.370Z,97206.66
2023-06-27T02:37:12.249Z,97213.78
2023-06-27T02:39:59.074Z,97211.94
2023-06-27T02:42:45.974Z,97222.59
2023-06-27T02:45:32.965Z,97216.91
2023-06-27T02:48:19.868Z,97222.66
2023-06-27T02:51:06.809Z,97233.88
2023-06-27T02:53:53.752Z,97225.44
2023-06-27T02:56:40.631Z,97234.22
2023-06-27T02:59:27.482Z,97236.41
2023-06-27T03:02:14.460Z,97241.84
2023-06-27T03:05:01.372Z,97243.50
2023-06-27T03:07:48.247Z,97250.34
2023-06-27T03:10:35.147Z,97243.03
2023-06-27T03:13:22.231Z,97242.81
2023-06-27T03:16:09.156Z,97245.28
2023-06-27T03:18:56.049Z,97239.03
2023-06-27T03:21:42.910Z,97244.25
2023-06-27T03:24:29.790Z,97251.63
2023-06-27T03:30:06.511Z,97255.25
2023-06-27T03:32:53.423Z,97259.94
2023-06-27T03:35:40.676Z,97256.16
2023-06-27T03:38:27.808Z,97265.19
2023-06-27T03:41:14.688Z,97267.13
2023-06-27T03:44:02.004Z,97259.19
2023-06-27T03:46:49.011Z,97268.78
2023-06-27T03:49:35.925Z,97262.25
2023-06-27T03:52:22.838Z,97262.28
2023-06-27T03:55:09.690Z,97258.19
2023-06-27T03:57:56.536Z,97260.41
2023-06-27T04:00:44.103Z,97273.50
2023-06-27T04:03:31.072Z,97274.31
2023-06-27T04:06:19.664Z,97272.44
2023-06-27T04:09:07.145Z,97284.72
2023-06-27T04:11:54.103Z,97272.75
2023-06-27T04:14:41.313Z,97276.34
2023-06-27T04:17:28.280Z,97284.00
2023-06-27T04:20:15.377Z,97275.84
2023-06-27T04:23:03.228Z,97281.56
2023-06-27T04:26:04.117Z,97279.94
2023-06-27T04:28:52.642Z,97280.19
2023-06-27T04:31:39.671Z,97284.59
2023-06-27T04:34:26.954Z,97277.28
2023-06-27T04:37:13.838Z,97285.50
2023-06-27T04:40:00.773Z,97290.41
2023-06-27T04:42:48.294Z,97300.50
2023-06-27T04:45:36.092Z,97302.41
2023-06-27T04:48:22.936Z,97302.66
2023-06-27T04:51:09.771Z,97305.38
2023-06-27T04:53:56.939Z,97310.31
2023-06-27T04:56:44.015Z,97305.94
2023-06-27T04:59:32.467Z,97305.44
2023-06-27T05:02:19.463Z,97304.88
2023-06-27T05:05:09.206Z,97311.16
2023-06-27T05:07:56.294Z,97320.72
2023-06-27T05:10:44.558Z,97309.56
2023-06-27T05:13:33.734Z,97318.25
2023-06-27T05:16:20.976Z,97321.28
2023-06-27T05:19:10.476Z,97326.97
2023-06-27T05:21:57.410Z,97323.75
2023-06-27T05:24:44.264Z,97318.84
2023-06-27T05:27:31.192Z,97328.09
2023-06-27T05:30:18.112Z,97323.22
2023-06-27T05:33:05.313Z,97336.59
2023-06-27T05:35:52.224Z,97340.38
2023-06-27T05:38:39.066Z,97338.22
2023-06-27T05:41:26.073Z,97348.28
2023-06-27T05:44:12.873Z,97340.66
2023-06-27T05:46:59.927Z,97348.88
2023-06-27T05:49:46.825Z,97347.78
2023-06-27T05:52:33.788Z,97352.16
2023-06-27T05:55:20.732Z,97349.19
2023-06-27T05:58:07.689Z,97349.19
2023-06-27T06:00:55.827Z,97345.13
2023-06-27T06:03:44.594Z,97347.31
2023-06-27T06:06:34.775Z,97341.31
2023-06-27T06:09:21.737Z,97341.88
2023-06-27T06:12:08.966Z,97345.69
2023-06-27T06:14:55.893Z,97353.84
2023-06-27T06:17:42.751Z,97355.75
2023-06-27T06:20:30.620Z,97351.41
2023-06-27T06:23:17.462Z,97359.00
2023-06-27T06:26:04.318Z,97365.00
2023-06-27T06:28:51.235Z,97360.38
2023-06-27T06:31:38.214Z,97360.88
2023-06-27T06:34:25.109Z,97360.22
2023-06-27T06:37:11.966Z,97356.66
2023-06-27T06:39:58.874Z,97356.56
2023-06-27T06:42:45.749Z,97360.09
2023-06-27T06:45:32.633Z,97362.59
2023-06-27T06:48:22.731Z,97364.56
2023-06-27T06:51:09.617Z,97374.16
2023-06-27T06:53:56.526Z,97372.31
2023-06-27T06:56:43.436Z,97372.84
2023-06-27T06:59:30.259Z,97378.03
2023-06-27T07:02:17.514Z,97379.69
2023-06-27T07:05:05.846Z,97377.81
2023-06-27T07:07:52.770Z,97390.59
2023-06-27T07:10:39.957Z,97380.75
2023-06-27T07:13:26.811Z,97383.94
2023-06-27T07:16:13.836Z,97383.94
2023-06-27T07:19:00.669Z,97383.69
2023-06-27T07:21:47.630Z,97382.09
2023-06-27T07:24:34.549Z,97390.03
2023-06-27T07:27:21.416Z,97393.88
2023-06-27T07:30:09.248Z,97395.47
2023-06-27T07:32:56.183Z,97383.22
2023-06-27T07:35:43.123Z,97381.34
2023-06-27T07:38:30.035Z,97378.56
2023-06-27T07:41:17.347Z,97376.97
2023-06-27T07:44:04.274Z,97381.31
2023-06-27T07:46:51.232Z,97392.47
2023-06-27T07:49:40.617Z,97385.97
2023-06-27T07:52:27.568Z,97383.53
2023-06-27T07:55:14.516Z,97379.72
2023-06-27T07:58:01.406Z,97375.59
2023-06-27T08:00:48.195Z,97374.78
2023-06-27T08:03:35.196Z,97378.91
2023-06-27T08:06:22.488Z,97377.53
2023-06-27T08:09:09.545Z,97368.00
2023-06-27T08:11:56.394Z,97367.19
2023-06-27T08:14:44.787Z,97360.38
2023-06-27T08:17:31.681Z,97371.25
2023-06-27T08:20:19.214Z,97373.41
2023-06-27T08:23:07.225Z,97364.47
2023-06-27T08:25:55.241Z,97372.34
2023-06-27T08:28:42.840Z,97373.97
2023-06-27T08:31:29.758Z,97371.53
2023-06-27T08:34:17.593Z,97364.75
2023-06-27T08:37:04.580Z,97371.56
2023-06-27T08:39:53.040Z,97368.00
2023-06-27T08:42:39.889Z,97362.56
2023-06-27T08:45:26.754Z,97359.03
2023-06-27T08:48:15.760Z,97362.56
2023-06-27T08:51:03.411Z,97365.28
2023-06-27T08:53:53.363Z,97358.22
2023-06-27T08:56:41.461Z,97362.03
2023-06-27T08:59:32.878Z,97365.00
2023-06-27T09:02:19.875Z,97363.13
2023-06-27T09:05:07.525Z,97361.47
2023-06-27T09:07:54.465Z,97359.03
2023-06-27T09:10:42.035Z,97356.31
2023-06-27T09:13:29.112Z,97349.25
2023-06-27T09:16:17.198Z,97358.47
2023-06-27T09:19:06.038Z,97362.00
2023-06-27T09:21:54.950Z,97360.38
2023-06-27T09:24:43.036Z,97365.00
2023-06-27T09:27:31.238Z,97356.84
2023-06-27T09:30:18.185Z,97349.25
2023-06-27T09:33:05.423Z,97351.94
2023-06-27T09:36:01.935Z,97353.56
2023-06-27T09:38:54.687Z,97357.94
2023-06-27T09:41:46.553Z,97352.22
2023-06-27T09:44:33.547Z,97354.41
2023-06-27T09:47:25.654Z,97349.78
2023-06-27T09:50:12.595Z,97344.06
2023-06-27T09:53:00.571Z,97350.59
2023-06-27T09:55:47.452Z,97353.88
2023-06-27T09:58:35.593Z,97337.25
2023-06-27T10:01:24.523Z,97347.59
2023-06-27T10:04:14.057Z,97335.63
2023-06-27T10:07:02.963Z,97350.31
2023-06-27T10:09:51.156Z,97338.88
2023-06-27T10:12:38.732Z,97346.78
2023-06-27T10:15:25.637Z,97348.94
2023-06-27T10:18:12.492Z,97348.69
2023-06-27T10:20:59.771Z,97341.03
2023-06-27T10:23:49.840Z,97347.84
2023-06-27T10:26:37.291Z,97342.16
2023-06-27T10:29:25.126Z,97338.88
2023-06-27T10:32:15.944Z,97334.53
2023-06-27T10:35:10.002Z,97331.25
2023-06-27T10:38:16.336Z,97337.75
2023-06-27T10:41:07.903Z,97338.03
2023-06-27T10:43:54.905Z,97329.88
2023-06-27T10:46:41.736Z,97328.50
2023-06-27T10:49:37.899Z,97336.09
2023-06-27T10:52:26.009Z,97322.75
2023-06-27T10:55:19.771Z,97324.09
2023-06-27T10:58:11.829Z,97329.56
2023-06-27T11:01:00.941Z,97326.25
2023-06-27T11:03:53.786Z,97324.59
2023-06-27T11:06:46.705Z,97306.63
2023-06-27T11:09:34.177Z,97314.22
2023-06-27T11:12:22.584Z,97314.75
2023-06-27T11:15:09.507Z,97313.41
2023-06-27T11:17:56.558Z,97322.38
2023-06-27T11:20:44.325Z,97317.44
2023-06-27T11:23:31.439Z,97313.38
2023-06-27T11:26:22.073Z,97312.81
2023-06-27T11:29:08.942Z,97317.97
2023-06-27T11:31:56.678Z,97314.72
2023-06-27T11:34:43.685Z,97312.00
2023-06-27T11:37:30.702Z,97318.00
2023-06-27T11:40:17.953Z,97309.53
2023-06-27T11:43:08.933Z,97311.69
2023-06-27T11:46:01.781Z,97316.03
2023-06-27T11:48:49.011Z,97309.22
2023-06-27T11:51:40.417Z,97305.94
2023-06-27T11:54:27.266Z,97295.56
2023-06-27T11:57:14.439Z,97289.84
2023-06-27T12:00:01.293Z,97282.72
2023-06-27T12:02:52.898Z,97287.63
2023-06-27T12:05:45.566Z,97281.06
2023-06-27T12:08:34.165Z,97291.41
2023-06-27T12:11:27.195Z,97283.47
2023-06-27T12:14:22.225Z,97281.00
2023-06-27T12:17:29.301Z,97285.06
2023-06-27T12:20:16.197Z,97281.75
2023-06-27T12:23:03.141Z,97279.56
2023-06-27T12:25:50.365Z,97265.66
2023-06-27T12:29:01.255Z,97272.19
2023-06-27T12:31:48.108Z,97267.53
2023-06-27T12:34:37.244Z,97266.44
2023-06-27T12:37:24.480Z,97257.16
2023-06-27T12:40:12.555Z,97256.06
2023-06-27T12:42:59.402Z,97254.97
2023-06-27T12:46:04.744Z,97256.56
2023-06-27T12:48:51.620Z,97260.94
2023-06-27T12:51:38.573Z,97257.13
2023-06-27T12:54:25.390Z,97257.13
2023-06-27T12:57:12.280Z,97256.81
2023-06-27T13:00:00.993Z,97249.47
2023-06-27T13:02:57.821Z,97253.00
2023-06-27T13:05:56.128Z,97251.91
2023-06-27T13:08:42.972Z,97253.53
2023-06-27T13:11:29.771Z,97241.53
2023-06-27T13:14:16.635Z,97237.97
2023-06-27T13:17:06.594Z,97232.81
2023-06-27T13:19:53.495Z,97224.88
2023-06-27T13:22:41.093Z,97226.50
2023-06-27T13:25:28.513Z,97223.50
2023-06-27T13:28:15.369Z,97228.69
2023-06-27T13:31:02.332Z,97226.78
2023-06-27T13:33:49.917Z,97217.47
2023-06-27T13:36:36.815Z,97210.91
2023-06-27T13:39:23.702Z,97208.72
2023-06-27T13:42:12.085Z,97222.06
2023-06-27T13:45:00.966Z,97221.00
2023-06-27T13:47:47.963Z,97218.78
2023-06-27T13:50:34.835Z,97211.41
2023-06-27T13:53:22.713Z,97208.41
2023-06-27T13:56:10.628Z,97207.59
2023-06-27T13:58:59.139Z,97211.63
2023-06-27T14:01:45.996Z,97209.44
2023-06-27T14:04:33.790Z,97210.25
2023-06-27T14:07:20.724Z,97204.81
2023-06-27T14:10:08.460Z,97199.06
2023-06-27T14:12:55.651Z,97189.78
2023-06-27T14:15:42.802Z,97193.31
2023-06-27T14:18:29.727Z,97195.75
2023-06-27T14:21:17.841Z,97195.75
2023-06-27T14:24:05.959Z,97184.56
2023-06-27T14:26:52.816Z,97188.09
2023-06-27T14:29:39.718Z,97178.81
2023-06-27T14:32:26.701Z,97183.19
2023-06-27T14:35:13.769Z,97178.00
2023-06-27T14:38:00.718Z,97187.22
2023-06-27T14:40:48.406Z,97181.75
2023-06-27T14:43:35.298Z,97172.50
2023-06-27T14:46:22.152Z,97177.66
2023-06-27T14:49:08.982Z,97174.34
2023-06-27T14:51:55.830Z,97174.63
2023-06-27T14:54:42.744Z,97164.25
2023-06-27T14:57:29.726Z,97170.50
2023-06-27T15:00:19.445Z,97158.47
2023-06-27T15:03:07.559Z,97166.66
2023-06-27T15:05:57.430Z,97162.84
2023-06-27T15:08:44.488Z,97152.75
2023-06-27T15:11:31.297Z,97155.47
2023-06-27T15:14:18.330Z,97154.91
2023-06-27T15:17:05.855Z,97153.78
2023-06-27T15:19:55.131Z,97146.72
2023-06-27T15:22:44.794Z,97145.31
2023-06-27T15:25:34.163Z,97148.38
2023-06-27T15:28:24.427Z,97147.09
2023-06-27T15:31:12.833Z,97137.59
2023-06-27T15:33:59.836Z,97139.66
2023-06-27T15:36:46.742Z,97135.88
2023-06-27T15:39:33.876Z,97136.84
2023-06-27T15:42:22.168Z,97128.00
2023-06-27T15:45:09.262Z,97131.19
2023-06-27T15:47:56.224Z,97131.97
2023-06-27T15:50:43.231Z,97128.88
2023-06-27T15:53:30.516Z,97119.50
2023-06-27T15:56:19.891Z,97124.09
2023-06-27T15:59:07.325Z,97125.69
2023-06-27T16:01:54.233Z,97118.53
2023-06-27T16:04:41.259Z,97115.22
2023-06-27T16:07:28.256Z,97120.09
2023-06-27T16:10:15.140Z,97116.78
2023-06-27T16:13:01.984Z,97113.72
2023-06-27T16:15:48.895Z,97110.72
2023-06-27T16:18:36.088Z,97108.50
2023-06-27T16:21:25.818Z,97101.13
2023-06-27T16:24:12.718Z,97100.03
2023-06-27T16:26:59.669Z,97098.63
2023-06-27T16:29:46.632Z,97094.78
2023-06-27T16:32:34.780Z,97094.78
2023-06-27T16:35:22.482Z,97099.44
2023-06-27T16:38:10.644Z,97095.06
2023-06-27T16:40:57.534Z,97094.25
2023-06-27T16:43:44.467Z,97083.63
2023-06-27T16:46:35.985Z,97080.59
2023-06-27T16:49:22.815Z,97084.13
2023-06-27T16:52:09.683Z,97083.31
2023-06-27T16:54:56.505Z,97088.78
2023-06-27T16:57:44.442Z,97080.91
2023-06-27T17:00:31.425Z,97078.69
2023-06-27T17:03:19.381Z,97081.41
2023-06-27T17:06:06.581Z,97080.59
2023-06-27T17:08:53.520Z,97085.56
2023-06-27T17:11:40.372Z,97087.97
2023-06-27T17:14:27.502Z,97080.91
2023-06-27T17:17:14.498Z,97092.63
2023-06-27T17:20:01.395Z,97091.03
2023-06-27T17:22:48.344Z,97095.69
2023-06-27T17:25:35.184Z,97087.19
2023-06-27T17:28:22.140Z,97086.06
2023-06-27T17:31:09.277Z,97084.13
2023-06-27T17:33:56.178Z,97082.53
2023-06-27T17:36:43.239Z,97080.59
2023-06-27T17:39:30.106Z,97081.41
2023-06-27T17:42:16.999Z,97086.88
2023-06-27T17:45:04.202Z,97078.97
2023-06-27T17:47:52.396Z,97082.84
2023-06-27T17:50:40.154Z,97078.44
2023-06-27T17:53:27.343Z,97090.50
2023-06-27T17:56:15.493Z,97080.69
2023-06-27T17:59:02.365Z,97082.59
2023-06-27T18:01:53.073Z,97085.34
2023-06-27T18:04:40.194Z,97081.81
2023-06-27T18:07:37.050Z,97086.97
2023-06-27T18:10:25.795Z,97085.03
2023-06-27T18:13:12.885Z,97083.41
2023-06-27T18:15:59.752Z,97080.16
2023-06-27T18:18:46.705Z,97073.06
2023-06-27T18:21:33.738Z,97077.72
2023-06-27T18:24:20.635Z,97067.94
2023-06-27T18:27:07.760Z,97070.94
2023-06-27T18:29:54.658Z,97070.13
2023-06-27T18:32:46.246Z,97077.50
2023-06-27T18:35:35.134Z,97075.06
2023-06-27T18:38:22.094Z,97073.44
2023-06-27T18:41:09.085Z,97072.09
2023-06-27T18:43:55.998Z,97072.41
2023-06-27T18:46:42.867Z,97068.06
2023-06-27T18:49:32.829Z,97063.72
2023-06-27T18:52:19.841Z,97063.16
2023-06-27T18:55:06.881Z,97065.38
2023-06-27T18:57:53.723Z,97062.94
2023-06-27T19:00:41.617Z,97068.72
2023-06-27T19:03:30.111Z,97065.44
2023-06-27T19:06:17.095Z,97067.94
2023-06-27T19:09:04.336Z,97071.00
2023-06-27T19:11:51.920Z,97075.09
2023-06-27T19:14:38.836Z,97079.22
2023-06-27T19:17:26.106Z,97077.59
2023-06-27T19:20:13.552Z,97090.44
2023-06-27T19:23:01.430Z,97083.66
2023-06-27T19:25:48.331Z,97095.16
2023-06-27T19:28:36.798Z,97094.34
2023-06-27T19:31:23.780Z,97106.63
2023-06-27T19:34:10.762Z,97109.38
2023-06-27T19:36:57.716Z,97106.13
2023-06-27T19:39:46.439Z,97101.25
2023-06-27T19:42:35.564Z,97105.09
2023-06-27T19:45:23.693Z,97112.47
2023-06-27T19:48:10.556Z,97103.75
2023-06-27T19:51:00.186Z,97102.41
2023-06-27T19:53:47.071Z,97093.72
2023-06-27T19:56:35.597Z,97089.34
2023-06-27T19:59:22.499Z,97094.31
2023-06-27T20:02:09.413Z,97084.78
2023-06-27T20:04:56.268Z,97091.34
2023-06-27T20:07:43.242Z,97090.00
2023-06-27T20:10:30.245Z,97090.56
2023-06-27T20:13:17.433Z,97090.56
2023-06-27T20:16:04.543Z,97095.00
2023-06-27T20:18:51.405Z,97087.91
2023-06-27T20:21:38.943Z,97088.19
2023-06-27T20:24:25.876Z,97087.69
2023-06-27T20:27:13.664Z,97092.59
2023-06-27T20:30:00.494Z,97092.06
2023-06-27T20:32:47.495Z,97092.34
2023-06-27T20:35:34.495Z,97095.69
2023-06-27T20:38:21.333Z,97087.75
2023-06-27T20:41:08.180Z,97085.63
2023-06-27T20:43:55.112Z,97108.53
2023-06-27T20:46:41.945Z,97097.94
2023-06-27T20:49:28.788Z,97099.31
2023-06-27T20:52:15.695Z,97098.50
2023-06-27T20:55:02.697Z,97096.34
2023-06-27T20:57:49.538Z,97086.56
2023-06-27T21:00:39.017Z,97099.09
2023-06-27T21:03:26.200Z,97102.94
2023-06-27T21:06:17.930Z,97108.97
2023-06-27T21:09:04.946Z,97112.81
2023-06-27T21:11:51.777Z,97115.81
2023-06-27T21:14:38.650Z,97107.41
2023-06-27T21:17:29.288Z,97105.75
2023-06-27T21:20:16.281Z,97109.91
2023-06-27T21:23:03.137Z,97112.88
2023-06-27T21:25:52.261Z,97113.19
2023-06-27T21:28:39.517Z,97109.94
2023-06-27T21:31:26.443Z,97112.13
2023-06-27T21:34:13.413Z,97123.31
2023-06-27T21:37:00.265Z,97134.50
2023-06-27T21:39:47.242Z,97131.25
2023-06-27T21:42:34.095Z,97130.72
2023-06-27T21:45:21.062Z,97114.94
2023-06-27T21:48:08.031Z,97119.84
2023-06-27T21:50:55.003Z,97130.25
2023-06-27T21:53:41.951Z,97147.16
2023-06-27T21:56:28.814Z,97143.09
2023-06-27T21:59:16.046Z,97155.63
2023-06-27T22:02:03.363Z,97158.91
2023-06-27T22:04:50.545Z,97160.00
2023-06-27T22:07:39.004Z,97167.13
2023-06-27T22:10:25.986Z,97164.16
2023-06-27T22:13:12.863Z,97161.69
2023-06-27T22:15:59.769Z,97155.19
2023-06-27T22:18:50.060Z,97158.22
2023-06-27T22:21:36.985Z,97161.50
2023-06-27T22:24:29.570Z,97162.34
2023-06-27T22:27:16.472Z,97169.16
2023-06-27T22:30:05.908Z,97172.44
2023-06-27T22:32:52.842Z,97186.59
2023-06-27T22:35:39.802Z,97195.06
2023-06-27T22:38:26.656Z,97179.59
2023-06-27T22:41:13.553Z,97188.00
2023-06-27T22:44:00.409Z,97181.25
2023-06-27T22:46:47.322Z,97174.69
2023-06-27T22:49:34.872Z,97180.72
2023-06-27T22:52:21.726Z,97179.63
2023-06-27T22:55:08.935Z,97187.28
2023-06-27T22:57:55.767Z,97199.81
2023-06-27T23:00:43.288Z,97187.84
2023-06-27T23:03:30.924Z,97191.13
2023-06-27T23:06:17.811Z,97194.38
2023-06-27T23:09:05.037Z,97192.50
2023-06-27T23:11:51.974Z,97194.97
2023-06-27T23:14:38.806Z,97211.03
2023-06-27T23:17:25.699Z,97227.09
2023-06-27T23:20:12.738Z,97256.75
2023-06-27T23:22:59.966Z,97250.22
2023-06-27T23:25:49.577Z,97262.47
2023-06-27T23:28:43.379Z,97259.47
2023-06-27T23:31:35.131Z,97252.16
2023-06-27T23:34:22.253Z,97258.13
2023-06-27T23:37:11.051Z,97245.88
2023-06-27T23:39:57.997Z,97247.53
2023-06-27T23:42:44.869Z,97221.16
2023-06-27T23:45:31.735Z,97219.81
2023-06-27T23:48:18.602Z,97230.69
2023-06-27T23:51:05.433Z,97225.00
2023-06-27T23:53:52.295Z,97221.19
2023-06-27T23:56:39.143Z,97228.75
2023-06-27T23:59:26.281Z,97222.25
